sensor_id;sensor_type;location;lat;lon;timestamp;temperature;humidity
41644;DHT22;44236;48.098;11.582;2023-08-12T00:00:16;23.20;61.10
41644;DHT22;44236;48.098;11.582;2023-08-12T00:02:44;23.10;61.10
41644;DHT22;44236;48.098;11.582;2023-08-12T00:05:10;23.20;61.10
41644;DHT22;44236;48.098;11.582;2023-08-12T00:07:37;23.10;61.00
41644;DHT22;44236;48.098;11.582;2023-08-12T00:10:03;23.10;61.00
41644;DHT22;44236;48.098;11.582;2023-08-12T00:12:33;23.20;61.10
41644;DHT22;44236;48.098;11.582;2023-08-12T00:14:59;23.10;61.00
41644;DHT22;44236;48.098;11.582;2023-08-12T00:17:24;23.10;61.00
41644;DHT22;44236;48.098;11.582;2023-08-12T00:19:50;23.10;61.00
41644;DHT22;44236;48.098;11.582;2023-08-12T00:22:16;23.10;61.00
41644;DHT22;44236;48.098;11.582;2023-08-12T00:24:41;23.10;61.00
41644;DHT22;44236;48.098;11.582;2023-08-12T00:27:07;23.10;61.00
41644;DHT22;44236;48.098;11.582;2023-08-12T00:29:34;23.10;60.90
41644;DHT22;44236;48.098;11.582;2023-08-12T00:32:00;23.10;60.90
41644;DHT22;44236;48.098;11.582;2023-08-12T00:34:26;23.10;60.90
41644;DHT22;44236;48.098;11.582;2023-08-12T00:36:51;23.10;60.90
41644;DHT22;44236;48.098;11.582;2023-08-12T00:39:17;23.00;60.90
41644;DHT22;44236;48.098;11.582;2023-08-12T00:41:42;23.10;60.90
41644;DHT22;44236;48.098;11.582;2023-08-12T00:44:08;23.10;60.90
41644;DHT22;44236;48.098;11.582;2023-08-12T00:46:34;23.10;60.90
41644;DHT22;44236;48.098;11.582;2023-08-12T00:49:00;23.10;60.90
41644;DHT22;44236;48.098;11.582;2023-08-12T00:51:26;23.00;60.90
41644;DHT22;44236;48.098;11.582;2023-08-12T00:53:52;23.10;60.90
41644;DHT22;44236;48.098;11.582;2023-08-12T00:56:19;23.10;60.90
41644;DHT22;44236;48.098;11.582;2023-08-12T00:58:45;23.00;60.80
41644;DHT22;44236;48.098;11.582;2023-08-12T01:01:11;23.00;60.80
41644;DHT22;44236;48.098;11.582;2023-08-12T01:03:37;23.10;60.90
41644;DHT22;44236;48.098;11.582;2023-08-12T01:06:03;23.00;60.80
41644;DHT22;44236;48.098;11.582;2023-08-12T01:08:31;23.00;60.80
41644;DHT22;44236;48.098;11.582;2023-08-12T01:13:57;23.00;60.80
41644;DHT22;44236;48.098;11.582;2023-08-12T01:16:26;23.00;60.80
41644;DHT22;44236;48.098;11.582;2023-08-12T01:18:54;23.00;60.80
41644;DHT22;44236;48.098;11.582;2023-08-12T01:21:21;23.00;60.80
41644;DHT22;44236;48.098;11.582;2023-08-12T01:23:47;23.00;60.80
41644;DHT22;44236;48.098;11.582;2023-08-12T01:26:13;23.00;60.70
41644;DHT22;44236;48.098;11.582;2023-08-12T01:28:39;23.00;60.80
41644;DHT22;44236;48.098;11.582;2023-08-12T01:31:20;23.00;60.70
41644;DHT22;44236;48.098;11.582;2023-08-12T01:34:02;23.00;60.80
41644;DHT22;44236;48.098;11.582;2023-08-12T01:36:29;23.00;60.80
41644;DHT22;44236;48.098;11.582;2023-08-12T01:38:58;23.00;60.70
41644;DHT22;44236;48.098;11.582;2023-08-12T01:41:25;23.00;60.80
41644;DHT22;44236;48.098;11.582;2023-08-12T01:43:51;23.00;60.80
41644;DHT22;44236;48.098;11.582;2023-08-12T01:46:17;23.00;60.80
41644;DHT22;44236;48.098;11.582;2023-08-12T01:48:42;23.00;60.70
41644;DHT22;44236;48.098;11.582;2023-08-12T01:51:08;23.00;60.70
41644;DHT22;44236;48.098;11.582;2023-08-12T01:53:34;23.00;60.70
41644;DHT22;44236;48.098;11.582;2023-08-12T01:55:59;23.00;60.60
41644;DHT22;44236;48.098;11.582;2023-08-12T01:58:25;23.00;60.70
41644;DHT22;44236;48.098;11.582;2023-08-12T02:00:52;22.90;60.60
41644;DHT22;44236;48.098;11.582;2023-08-12T02:03:18;23.00;60.60
41644;DHT22;44236;48.098;11.582;2023-08-12T02:05:43;22.90;60.60
41644;DHT22;44236;48.098;11.582;2023-08-12T02:08:09;23.00;60.60
41644;DHT22;44236;48.098;11.582;2023-08-12T02:10:35;22.90;60.60
41644;DHT22;44236;48.098;11.582;2023-08-12T02:13:00;22.90;60.60
41644;DHT22;44236;48.098;11.582;2023-08-12T02:15:28;22.90;60.60
41644;DHT22;44236;48.098;11.582;2023-08-12T02:17:53;22.90;60.60
41644;DHT22;44236;48.098;11.582;2023-08-12T02:20:19;22.90;60.50
41644;DHT22;44236;48.098;11.582;2023-08-12T02:22:45;22.90;60.50
41644;DHT22;44236;48.098;11.582;2023-08-12T02:25:10;22.90;60.50
41644;DHT22;44236;48.098;11.582;2023-08-12T02:27:36;22.90;60.40
41644;DHT22;44236;48.098;11.582;2023-08-12T02:30:02;22.90;60.30
41644;DHT22;44236;48.098;11.582;2023-08-12T02:32:27;22.90;60.30
41644;DHT22;44236;48.098;11.582;2023-08-12T02:34:53;22.90;60.30
41644;DHT22;44236;48.098;11.582;2023-08-12T02:37:19;22.90;60.40
41644;DHT22;44236;48.098;11.582;2023-08-12T02:39:44;22.90;60.30
41644;DHT22;44236;48.098;11.582;2023-08-12T02:42:10;22.90;60.30
41644;DHT22;44236;48.098;11.582;2023-08-12T02:44:35;22.90;60.30
41644;DHT22;44236;48.098;11.582;2023-08-12T02:47:01;22.90;60.30
41644;DHT22;44236;48.098;11.582;2023-08-12T02:49:26;22.90;60.30
41644;DHT22;44236;48.098;11.582;2023-08-12T02:51:53;22.90;60.30
41644;DHT22;44236;48.098;11.582;2023-08-12T02:54:18;22.90;60.40
41644;DHT22;44236;48.098;11.582;2023-08-12T02:56:44;22.90;60.40
41644;DHT22;44236;48.098;11.582;2023-08-12T02:59:09;22.90;60.40
41644;DHT22;44236;48.098;11.582;2023-08-12T03:01:35;22.80;60.30
41644;DHT22;44236;48.098;11.582;2023-08-12T03:04:01;22.80;60.90
41644;DHT22;44236;48.098;11.582;2023-08-12T03:06:26;22.80;60.30
41644;DHT22;44236;48.098;11.582;2023-08-12T03:08:52;22.80;60.30
41644;DHT22;44236;48.098;11.582;2023-08-12T03:11:17;22.80;60.30
41644;DHT22;44236;48.098;11.582;2023-08-12T03:13:44;22.80;60.30
41644;DHT22;44236;48.098;11.582;2023-08-12T03:16:13;22.80;60.40
41644;DHT22;44236;48.098;11.582;2023-08-12T03:18:39;22.80;60.30
41644;DHT22;44236;48.098;11.582;2023-08-12T03:21:09;22.80;60.40
41644;DHT22;44236;48.098;11.582;2023-08-12T03:23:35;22.80;60.30
41644;DHT22;44236;48.098;11.582;2023-08-12T03:26:01;22.80;60.30
41644;DHT22;44236;48.098;11.582;2023-08-12T03:28:27;22.80;60.30
41644;DHT22;44236;48.098;11.582;2023-08-12T03:30:53;22.80;60.30
41644;DHT22;44236;48.098;11.582;2023-08-12T03:33:19;22.80;60.30
41644;DHT22;44236;48.098;11.582;2023-08-12T03:35:46;22.80;60.30
41644;DHT22;44236;48.098;11.582;2023-08-12T03:38:12;22.80;60.30
41644;DHT22;44236;48.098;11.582;2023-08-12T03:40:38;22.80;60.20
41644;DHT22;44236;48.098;11.582;2023-08-12T03:43:04;22.70;60.10
41644;DHT22;44236;48.098;11.582;2023-08-12T03:45:29;22.80;60.20
41644;DHT22;44236;48.098;11.582;2023-08-12T03:47:55;22.70;60.10
41644;DHT22;44236;48.098;11.582;2023-08-12T03:50:21;22.70;60.20
41644;DHT22;44236;48.098;11.582;2023-08-12T03:52:46;22.70;60.10
41644;DHT22;44236;48.098;11.582;2023-08-12T03:55:12;22.70;60.10
41644;DHT22;44236;48.098;11.582;2023-08-12T03:57:38;22.70;60.10
41644;DHT22;44236;48.098;11.582;2023-08-12T04:00:04;22.70;60.10
41644;DHT22;44236;48.098;11.582;2023-08-12T04:02:29;22.70;60.10
41644;DHT22;44236;48.098;11.582;2023-08-12T04:04:55;22.70;60.00
41644;DHT22;44236;48.098;11.582;2023-08-12T04:07:21;22.70;60.00
41644;DHT22;44236;48.098;11.582;2023-08-12T04:09:46;22.70;60.10
41644;DHT22;44236;48.098;11.582;2023-08-12T04:12:12;22.70;60.00
41644;DHT22;44236;48.098;11.582;2023-08-12T04:14:37;22.70;60.00
41644;DHT22;44236;48.098;11.582;2023-08-12T04:17:03;22.70;60.00
41644;DHT22;44236;48.098;11.582;2023-08-12T04:19:29;22.70;60.00
41644;DHT22;44236;48.098;11.582;2023-08-12T04:21:54;22.60;59.90
41644;DHT22;44236;48.098;11.582;2023-08-12T04:24:20;22.70;60.00
41644;DHT22;44236;48.098;11.582;2023-08-12T04:26:45;22.70;59.90
41644;DHT22;44236;48.098;11.582;2023-08-12T04:29:11;22.70;59.90
41644;DHT22;44236;48.098;11.582;2023-08-12T04:31:36;22.60;59.90
41644;DHT22;44236;48.098;11.582;2023-08-12T04:34:02;22.70;59.90
41644;DHT22;44236;48.098;11.582;2023-08-12T04:36:29;22.70;59.90
41644;DHT22;44236;48.098;11.582;2023-08-12T04:38:55;22.70;59.90
41644;DHT22;44236;48.098;11.582;2023-08-12T04:41:20;22.70;59.90
41644;DHT22;44236;48.098;11.582;2023-08-12T04:43:49;22.70;59.90
41644;DHT22;44236;48.098;11.582;2023-08-12T04:46:14;22.70;59.90
41644;DHT22;44236;48.098;11.582;2023-08-12T04:48:40;22.70;59.90
41644;DHT22;44236;48.098;11.582;2023-08-12T04:51:06;22.70;59.90
41644;DHT22;44236;48.098;11.582;2023-08-12T04:53:32;22.70;59.90
41644;DHT22;44236;48.098;11.582;2023-08-12T04:55:58;22.70;60.00
41644;DHT22;44236;48.098;11.582;2023-08-12T04:58:23;22.70;60.00
41644;DHT22;44236;48.098;11.582;2023-08-12T05:00:50;22.70;60.00
41644;DHT22;44236;48.098;11.582;2023-08-12T05:03:19;22.70;60.00
41644;DHT22;44236;48.098;11.582;2023-08-12T05:05:51;22.70;60.00
41644;DHT22;44236;48.098;11.582;2023-08-12T05:08:17;22.70;60.00
41644;DHT22;44236;48.098;11.582;2023-08-12T05:10:42;22.70;60.00
41644;DHT22;44236;48.098;11.582;2023-08-12T05:13:08;22.70;60.00
41644;DHT22;44236;48.098;11.582;2023-08-12T05:15:34;22.70;60.00
41644;DHT22;44236;48.098;11.582;2023-08-12T05:18:02;22.70;60.10
41644;DHT22;44236;48.098;11.582;2023-08-12T05:20:28;22.70;60.00
41644;DHT22;44236;48.098;11.582;2023-08-12T05:22:53;22.70;60.00
41644;DHT22;44236;48.098;11.582;2023-08-12T05:25:19;22.70;60.00
41644;DHT22;44236;48.098;11.582;2023-08-12T05:27:44;22.80;60.10
41644;DHT22;44236;48.098;11.582;2023-08-12T05:30:10;22.70;60.00
41644;DHT22;44236;48.098;11.582;2023-08-12T05:32:36;22.70;60.00
41644;DHT22;44236;48.098;11.582;2023-08-12T05:35:02;22.70;60.00
41644;DHT22;44236;48.098;11.582;2023-08-12T05:37:27;22.70;60.00
41644;DHT22;44236;48.098;11.582;2023-08-12T05:39:53;22.80;60.00
41644;DHT22;44236;48.098;11.582;2023-08-12T05:42:18;22.80;60.00
41644;DHT22;44236;48.098;11.582;2023-08-12T05:44:44;22.70;60.00
41644;DHT22;44236;48.098;11.582;2023-08-12T05:47:09;22.50;59.80
41644;DHT22;44236;48.098;11.582;2023-08-12T05:49:35;22.70;59.90
41644;DHT22;44236;48.098;11.582;2023-08-12T05:52:01;22.80;60.00
41644;DHT22;44236;48.098;11.582;2023-08-12T05:54:26;22.80;60.00
41644;DHT22;44236;48.098;11.582;2023-08-12T05:56:52;22.70;59.90
41644;DHT22;44236;48.098;11.582;2023-08-12T05:59:17;22.80;60.00
41644;DHT22;44236;48.098;11.582;2023-08-12T06:01:43;22.80;60.00
41644;DHT22;44236;48.098;11.582;2023-08-12T06:04:08;22.80;60.00
41644;DHT22;44236;48.098;11.582;2023-08-12T06:06:34;22.80;59.90
41644;DHT22;44236;48.098;11.582;2023-08-12T06:09:00;22.80;59.90
41644;DHT22;44236;48.098;11.582;2023-08-12T06:11:25;22.80;59.90
41644;DHT22;44236;48.098;11.582;2023-08-12T06:13:51;22.80;59.90
41644;DHT22;44236;48.098;11.582;2023-08-12T06:16:16;22.80;59.90
41644;DHT22;44236;48.098;11.582;2023-08-12T06:18:42;22.80;59.90
41644;DHT22;44236;48.098;11.582;2023-08-12T06:21:07;22.80;59.90
41644;DHT22;44236;48.098;11.582;2023-08-12T06:23:33;22.80;59.90
41644;DHT22;44236;48.098;11.582;2023-08-12T06:25:59;22.80;59.80
41644;DHT22;44236;48.098;11.582;2023-08-12T06:28:24;22.80;59.90
41644;DHT22;44236;48.098;11.582;2023-08-12T06:30:50;22.80;59.90
41644;DHT22;44236;48.098;11.582;2023-08-12T06:33:16;22.80;59.90
41644;DHT22;44236;48.098;11.582;2023-08-12T06:35:42;22.80;59.90
41644;DHT22;44236;48.098;11.582;2023-08-12T06:38:07;22.80;59.90
41644;DHT22;44236;48.098;11.582;2023-08-12T06:40:35;22.80;59.90
41644;DHT22;44236;48.098;11.582;2023-08-12T06:43:01;22.80;59.90
41644;DHT22;44236;48.098;11.582;2023-08-12T06:45:26;22.80;59.80
41644;DHT22;44236;48.098;11.582;2023-08-12T06:47:52;22.90;59.90
41644;DHT22;44236;48.098;11.582;2023-08-12T06:50:18;22.80;59.80
41644;DHT22;44236;48.098;11.582;2023-08-12T06:52:43;22.80;59.90
41644;DHT22;44236;48.098;11.582;2023-08-12T06:55:09;22.90;59.90
41644;DHT22;44236;48.098;11.582;2023-08-12T06:57:34;22.90;59.90
41644;DHT22;44236;48.098;11.582;2023-08-12T07:00:00;22.80;59.90
41644;DHT22;44236;48.098;11.582;2023-08-12T07:02:26;22.90;59.90
41644;DHT22;44236;48.098;11.582;2023-08-12T07:04:51;22.90;59.90
41644;DHT22;44236;48.098;11.582;2023-08-12T07:07:17;22.90;59.90
41644;DHT22;44236;48.098;11.582;2023-08-12T07:09:42;22.90;59.90
41644;DHT22;44236;48.098;11.582;2023-08-12T07:12:08;22.90;59.90
41644;DHT22;44236;48.098;11.582;2023-08-12T07:14:33;22.90;59.90
41644;DHT22;44236;48.098;11.582;2023-08-12T07:16:59;22.90;59.90
41644;DHT22;44236;48.098;11.582;2023-08-12T07:19:24;22.90;60.00
41644;DHT22;44236;48.098;11.582;2023-08-12T07:21:50;22.90;60.00
41644;DHT22;44236;48.098;11.582;2023-08-12T07:24:16;22.90;60.00
41644;DHT22;44236;48.098;11.582;2023-08-12T07:26:41;22.90;60.00
41644;DHT22;44236;48.098;11.582;2023-08-12T07:29:07;22.90;60.00
41644;DHT22;44236;48.098;11.582;2023-08-12T07:31:32;22.90;59.90
41644;DHT22;44236;48.098;11.582;2023-08-12T07:33:58;22.90;59.90
41644;DHT22;44236;48.098;11.582;2023-08-12T07:36:24;23.00;60.00
41644;DHT22;44236;48.098;11.582;2023-08-12T07:38:50;22.90;59.90
41644;DHT22;44236;48.098;11.582;2023-08-12T07:41:15;23.00;60.00
41644;DHT22;44236;48.098;11.582;2023-08-12T07:43:41;22.90;59.90
41644;DHT22;44236;48.098;11.582;2023-08-12T07:46:06;22.90;59.90
41644;DHT22;44236;48.098;11.582;2023-08-12T07:48:32;23.00;59.90
41644;DHT22;44236;48.098;11.582;2023-08-12T07:50:58;23.00;59.90
41644;DHT22;44236;48.098;11.582;2023-08-12T07:53:24;23.00;59.90
41644;DHT22;44236;48.098;11.582;2023-08-12T07:55:49;23.00;59.90
41644;DHT22;44236;48.098;11.582;2023-08-12T07:58:15;23.00;60.40
41644;DHT22;44236;48.098;11.582;2023-08-12T08:00:41;23.00;59.90
41644;DHT22;44236;48.098;11.582;2023-08-12T08:03:06;23.00;60.40
41644;DHT22;44236;48.098;11.582;2023-08-12T08:05:32;23.00;59.90
41644;DHT22;44236;48.098;11.582;2023-08-12T08:07:58;23.00;59.90
41644;DHT22;44236;48.098;11.582;2023-08-12T08:10:23;23.00;59.90
41644;DHT22;44236;48.098;11.582;2023-08-12T08:12:49;23.00;59.90
41644;DHT22;44236;48.098;11.582;2023-08-12T08:15:14;23.00;59.80
41644;DHT22;44236;48.098;11.582;2023-08-12T08:17:40;23.00;59.80
41644;DHT22;44236;48.098;11.582;2023-08-12T08:20:07;23.00;59.80
41644;DHT22;44236;48.098;11.582;2023-08-12T08:22:32;23.10;59.90
41644;DHT22;44236;48.098;11.582;2023-08-12T08:24:59;23.10;59.90
41644;DHT22;44236;48.098;11.582;2023-08-12T08:27:24;23.00;59.80
41644;DHT22;44236;48.098;11.582;2023-08-12T08:29:50;23.10;59.80
41644;DHT22;44236;48.098;11.582;2023-08-12T08:32:16;23.10;59.80
41644;DHT22;44236;48.098;11.582;2023-08-12T08:34:42;23.10;59.80
41644;DHT22;44236;48.098;11.582;2023-08-12T08:37:08;23.10;59.80
41644;DHT22;44236;48.098;11.582;2023-08-12T08:39:33;23.10;59.80
41644;DHT22;44236;48.098;11.582;2023-08-12T08:42:00;23.10;59.80
41644;DHT22;44236;48.098;11.582;2023-08-12T08:44:29;23.20;59.80
41644;DHT22;44236;48.098;11.582;2023-08-12T08:46:56;23.20;59.80
41644;DHT22;44236;48.098;11.582;2023-08-12T08:49:24;23.20;59.80
41644;DHT22;44236;48.098;11.582;2023-08-12T08:51:51;23.20;59.80
41644;DHT22;44236;48.098;11.582;2023-08-12T08:54:19;23.20;59.80
41644;DHT22;44236;48.098;11.582;2023-08-12T08:56:45;23.20;59.80
41644;DHT22;44236;48.098;11.582;2023-08-12T08:59:10;23.20;59.80
41644;DHT22;44236;48.098;11.582;2023-08-12T09:01:36;23.20;59.80
41644;DHT22;44236;48.098;11.582;2023-08-12T09:04:03;23.20;59.80
41644;DHT22;44236;48.098;11.582;2023-08-12T09:06:29;23.20;59.80
41644;DHT22;44236;48.098;11.582;2023-08-12T09:08:56;23.20;59.80
41644;DHT22;44236;48.098;11.582;2023-08-12T09:11:21;23.20;59.80
41644;DHT22;44236;48.098;11.582;2023-08-12T09:13:48;23.20;59.80
41644;DHT22;44236;48.098;11.582;2023-08-12T09:16:14;23.20;59.80
41644;DHT22;44236;48.098;11.582;2023-08-12T09:18:42;23.20;59.80
41644;DHT22;44236;48.098;11.582;2023-08-12T09:21:09;23.20;59.80
41644;DHT22;44236;48.098;11.582;2023-08-12T09:23:38;23.20;59.80
41644;DHT22;44236;48.098;11.582;2023-08-12T09:26:13;23.30;59.90
41644;DHT22;44236;48.098;11.582;2023-08-12T09:28:39;23.30;60.00
41644;DHT22;44236;48.098;11.582;2023-08-12T09:31:05;23.30;59.90
41644;DHT22;44236;48.098;11.582;2023-08-12T09:33:31;23.30;59.90
41644;DHT22;44236;48.098;11.582;2023-08-12T09:35:56;23.30;59.90
41644;DHT22;44236;48.098;11.582;2023-08-12T09:38:22;23.30;59.90
41644;DHT22;44236;48.098;11.582;2023-08-12T09:40:48;23.30;59.90
41644;DHT22;44236;48.098;11.582;2023-08-12T09:43:13;23.30;59.90
41644;DHT22;44236;48.098;11.582;2023-08-12T09:45:44;23.30;59.90
41644;DHT22;44236;48.098;11.582;2023-08-12T09:48:09;23.30;59.90
41644;DHT22;44236;48.098;11.582;2023-08-12T09:50:35;23.30;59.90
41644;DHT22;44236;48.098;11.582;2023-08-12T09:53:01;23.30;59.90
41644;DHT22;44236;48.098;11.582;2023-08-12T09:55:29;23.30;59.90
41644;DHT22;44236;48.098;11.582;2023-08-12T09:57:58;23.30;59.90
41644;DHT22;44236;48.098;11.582;2023-08-12T10:00:24;23.30;59.90
41644;DHT22;44236;48.098;11.582;2023-08-12T10:02:52;23.30;59.90
41644;DHT22;44236;48.098;11.582;2023-08-12T10:05:24;23.30;60.50
41644;DHT22;44236;48.098;11.582;2023-08-12T10:07:52;23.30;60.00
41644;DHT22;44236;48.098;11.582;2023-08-12T10:10:19;23.40;60.00
41644;DHT22;44236;48.098;11.582;2023-08-12T10:12:46;23.40;60.00
41644;DHT22;44236;48.098;11.582;2023-08-12T10:15:12;23.40;60.00
41644;DHT22;44236;48.098;11.582;2023-08-12T10:17:38;23.40;60.10
41644;DHT22;44236;48.098;11.582;2023-08-12T10:20:06;23.30;60.00
41644;DHT22;44236;48.098;11.582;2023-08-12T10:22:35;23.30;60.00
41644;DHT22;44236;48.098;11.582;2023-08-12T10:25:04;23.40;60.10
41644;DHT22;44236;48.098;11.582;2023-08-12T10:27:30;23.40;60.10
41644;DHT22;44236;48.098;11.582;2023-08-12T10:29:58;23.40;60.10
41644;DHT22;44236;48.098;11.582;2023-08-12T10:32:27;23.40;60.10
41644;DHT22;44236;48.098;11.582;2023-08-12T10:34:55;23.40;60.10
41644;DHT22;44236;48.098;11.582;2023-08-12T10:37:23;23.40;60.10
41644;DHT22;44236;48.098;11.582;2023-08-12T10:39:49;23.40;60.10
41644;DHT22;44236;48.098;11.582;2023-08-12T10:42:45;23.40;60.10
41644;DHT22;44236;48.098;11.582;2023-08-12T10:45:12;23.40;60.10
41644;DHT22;44236;48.098;11.582;2023-08-12T10:50:25;23.40;60.10
41644;DHT22;44236;48.098;11.582;2023-08-12T10:52:54;23.40;60.10
41644;DHT22;44236;48.098;11.582;2023-08-12T10:55:25;23.50;60.10
41644;DHT22;44236;48.098;11.582;2023-08-12T10:57:53;23.50;60.20
41644;DHT22;44236;48.098;11.582;2023-08-12T11:02:53;23.50;60.20
41644;DHT22;44236;48.098;11.582;2023-08-12T11:05:19;23.50;60.20
41644;DHT22;44236;48.098;11.582;2023-08-12T11:07:58;23.50;60.20
41644;DHT22;44236;48.098;11.582;2023-08-12T11:10:27;23.50;60.20
41644;DHT22;44236;48.098;11.582;2023-08-12T11:12:55;23.60;60.30
41644;DHT22;44236;48.098;11.582;2023-08-12T11:15:37;23.50;60.30
41644;DHT22;44236;48.098;11.582;2023-08-12T11:18:04;23.60;60.30
41644;DHT22;44236;48.098;11.582;2023-08-12T11:20:31;23.50;60.30
41644;DHT22;44236;48.098;11.582;2023-08-12T11:22:57;23.50;60.30
41644;DHT22;44236;48.098;11.582;2023-08-12T11:25:27;23.50;60.20
41644;DHT22;44236;48.098;11.582;2023-08-12T11:27:53;23.60;60.30
41644;DHT22;44236;48.098;11.582;2023-08-12T11:30:20;23.60;60.40
41644;DHT22;44236;48.098;11.582;2023-08-12T11:32:49;23.60;60.40
41644;DHT22;44236;48.098;11.582;2023-08-12T11:35:16;23.60;60.40
41644;DHT22;44236;48.098;11.582;2023-08-12T11:37:44;23.60;60.50
41644;DHT22;44236;48.098;11.582;2023-08-12T11:40:12;23.60;60.50
41644;DHT22;44236;48.098;11.582;2023-08-12T11:42:42;23.60;60.40
41644;DHT22;44236;48.098;11.582;2023-08-12T11:45:08;23.60;60.50
41644;DHT22;44236;48.098;11.582;2023-08-12T11:47:35;23.60;60.50
41644;DHT22;44236;48.098;11.582;2023-08-12T11:50:05;23.60;60.50
41644;DHT22;44236;48.098;11.582;2023-08-12T11:52:32;23.60;60.50
41644;DHT22;44236;48.098;11.582;2023-08-12T11:54:58;23.70;60.60
41644;DHT22;44236;48.098;11.582;2023-08-12T11:57:24;23.60;60.60
41644;DHT22;44236;48.098;11.582;2023-08-12T11:59:51;23.70;60.60
41644;DHT22;44236;48.098;11.582;2023-08-12T12:02:17;23.70;60.60
41644;DHT22;44236;48.098;11.582;2023-08-12T12:04:43;23.70;60.70
41644;DHT22;44236;48.098;11.582;2023-08-12T12:07:19;23.70;60.70
41644;DHT22;44236;48.098;11.582;2023-08-12T12:09:45;23.70;60.70
41644;DHT22;44236;48.098;11.582;2023-08-12T12:12:11;23.70;60.70
41644;DHT22;44236;48.098;11.582;2023-08-12T12:14:36;23.70;60.70
41644;DHT22;44236;48.098;11.582;2023-08-12T12:17:07;23.70;60.70
41644;DHT22;44236;48.098;11.582;2023-08-12T12:19:32;23.70;60.70
41644;DHT22;44236;48.098;11.582;2023-08-12T12:22:02;23.70;60.70
41644;DHT22;44236;48.098;11.582;2023-08-12T12:24:29;23.70;60.80
41644;DHT22;44236;48.098;11.582;2023-08-12T12:26:56;23.70;60.80
41644;DHT22;44236;48.098;11.582;2023-08-12T12:29:22;23.80;60.90
41644;DHT22;44236;48.098;11.582;2023-08-12T12:31:48;23.70;60.80
41644;DHT22;44236;48.098;11.582;2023-08-12T12:34:14;23.70;60.80
41644;DHT22;44236;48.098;11.582;2023-08-12T12:36:40;23.70;60.80
41644;DHT22;44236;48.098;11.582;2023-08-12T12:39:06;23.80;60.90
41644;DHT22;44236;48.098;11.582;2023-08-12T12:41:33;23.80;60.90
41644;DHT22;44236;48.098;11.582;2023-08-12T12:44:02;23.80;60.90
41644;DHT22;44236;48.098;11.582;2023-08-12T12:46:28;23.80;60.90
41644;DHT22;44236;48.098;11.582;2023-08-12T12:48:54;23.80;61.00
41644;DHT22;44236;48.098;11.582;2023-08-12T12:51:19;23.80;61.00
41644;DHT22;44236;48.098;11.582;2023-08-12T12:53:45;23.80;61.00
41644;DHT22;44236;48.098;11.582;2023-08-12T12:56:10;23.80;61.00
41644;DHT22;44236;48.098;11.582;2023-08-12T12:58:37;23.80;61.00
41644;DHT22;44236;48.098;11.582;2023-08-12T13:01:03;23.80;61.00
41644;DHT22;44236;48.098;11.582;2023-08-12T13:03:30;23.80;61.00
41644;DHT22;44236;48.098;11.582;2023-08-12T13:05:56;23.80;61.00
41644;DHT22;44236;48.098;11.582;2023-08-12T13:08:22;23.90;61.10
41644;DHT22;44236;48.098;11.582;2023-08-12T13:10:48;23.90;61.10
41644;DHT22;44236;48.098;11.582;2023-08-12T13:13:14;23.90;61.10
41644;DHT22;44236;48.098;11.582;2023-08-12T13:15:43;23.90;61.10
41644;DHT22;44236;48.098;11.582;2023-08-12T13:18:09;23.90;61.10
41644;DHT22;44236;48.098;11.582;2023-08-12T13:20:35;23.90;61.10
41644;DHT22;44236;48.098;11.582;2023-08-12T13:23:01;23.90;61.10
41644;DHT22;44236;48.098;11.582;2023-08-12T13:25:29;23.90;61.20
41644;DHT22;44236;48.098;11.582;2023-08-12T13:27:56;23.90;61.20
41644;DHT22;44236;48.098;11.582;2023-08-12T13:30:21;23.90;61.20
41644;DHT22;44236;48.098;11.582;2023-08-12T13:32:47;23.90;61.20
41644;DHT22;44236;48.098;11.582;2023-08-12T13:35:12;23.90;61.20
41644;DHT22;44236;48.098;11.582;2023-08-12T13:37:38;23.90;61.20
41644;DHT22;44236;48.098;11.582;2023-08-12T13:40:04;23.90;61.20
41644;DHT22;44236;48.098;11.582;2023-08-12T13:42:30;23.90;61.20
41644;DHT22;44236;48.098;11.582;2023-08-12T13:44:56;23.90;61.20
41644;DHT22;44236;48.098;11.582;2023-08-12T13:47:21;23.90;61.30
41644;DHT22;44236;48.098;11.582;2023-08-12T13:49:47;23.90;61.20
41644;DHT22;44236;48.098;11.582;2023-08-12T13:52:12;23.90;61.30
41644;DHT22;44236;48.098;11.582;2023-08-12T13:54:38;23.90;61.20
41644;DHT22;44236;48.098;11.582;2023-08-12T13:57:04;24.00;61.30
41644;DHT22;44236;48.098;11.582;2023-08-12T13:59:30;23.90;61.30
41644;DHT22;44236;48.098;11.582;2023-08-12T14:01:55;24.00;61.30
41644;DHT22;44236;48.098;11.582;2023-08-12T14:04:21;24.00;61.40
41644;DHT22;44236;48.098;11.582;2023-08-12T14:06:46;24.00;61.30
41644;DHT22;44236;48.098;11.582;2023-08-12T14:09:12;24.00;61.40
41644;DHT22;44236;48.098;11.582;2023-08-12T14:11:39;24.00;61.40
41644;DHT22;44236;48.098;11.582;2023-08-12T14:14:05;24.00;61.40
41644;DHT22;44236;48.098;11.582;2023-08-12T14:16:31;24.00;61.40
41644;DHT22;44236;48.098;11.582;2023-08-12T14:18:57;24.00;61.40
41644;DHT22;44236;48.098;11.582;2023-08-12T14:21:22;24.00;61.40
41644;DHT22;44236;48.098;11.582;2023-08-12T14:23:48;24.00;61.40
41644;DHT22;44236;48.098;11.582;2023-08-12T14:26:13;24.00;61.40
41644;DHT22;44236;48.098;11.582;2023-08-12T14:28:39;24.00;61.40
41644;DHT22;44236;48.098;11.582;2023-08-12T14:31:04;24.00;61.40
41644;DHT22;44236;48.098;11.582;2023-08-12T14:33:30;24.00;61.40
41644;DHT22;44236;48.098;11.582;2023-08-12T14:35:59;24.00;61.40
41644;DHT22;44236;48.098;11.582;2023-08-12T14:38:25;24.00;61.40
41644;DHT22;44236;48.098;11.582;2023-08-12T14:40:51;24.00;61.40
41644;DHT22;44236;48.098;11.582;2023-08-12T14:43:16;24.00;61.90
41644;DHT22;44236;48.098;11.582;2023-08-12T14:45:44;24.10;61.50
41644;DHT22;44236;48.098;11.582;2023-08-12T14:48:11;24.00;61.40
41644;DHT22;44236;48.098;11.582;2023-08-12T14:50:39;24.00;61.50
41644;DHT22;44236;48.098;11.582;2023-08-12T14:53:05;24.10;61.50
41644;DHT22;44236;48.098;11.582;2023-08-12T14:55:31;24.10;61.50
41644;DHT22;44236;48.098;11.582;2023-08-12T14:57:56;24.10;61.50
41644;DHT22;44236;48.098;11.582;2023-08-12T15:00:22;24.10;61.50
41644;DHT22;44236;48.098;11.582;2023-08-12T15:02:47;24.10;61.50
41644;DHT22;44236;48.098;11.582;2023-08-12T15:05:13;24.10;61.50
41644;DHT22;44236;48.098;11.582;2023-08-12T15:07:38;24.10;61.50
41644;DHT22;44236;48.098;11.582;2023-08-12T15:10:05;24.10;61.60
41644;DHT22;44236;48.098;11.582;2023-08-12T15:12:30;24.10;61.60
41644;DHT22;44236;48.098;11.582;2023-08-12T15:14:56;24.10;61.60
41644;DHT22;44236;48.098;11.582;2023-08-12T15:17:22;24.10;61.60